Etusivu
METAR-TAF:

METAR-TAF

Lentoasemat :

Funchal, Madeira, Portugali

Madeiran lentoasema

Leveyspiiri: 32-41-52N, Pituuspiiri: 016-46-28W, korkeus merenpinnasta: 59 m

Tämänhetkinen sää

Tämä raportti tehtiin 37 minuuttia sitten, kello 09.30 UTC
Tuuli 7 kn pohjoisesta/koillisesta, vaihdellen pohjoisen ja idän välillä
Lämpötila 21°C
Kosteus 69%
Ilmanpaine 1015 hPa
Näkyvyys 10 km tai enemmän
Muutamia pilviä 1500 ft:n korkeudessa

METAR: LPMA 270930Z 03007KT 350V080 9999 FEW015 21/15 Q1015

Aika: 11:07 (10:07 UTC)

Sääennuste

Tämä raportti tehtiin 5 tuntia ja 7 minuuttia sitten, kello 05.00 UTC
Ennuste voimassa 27. päivästä klo 06 UTC - 28. päivään klo 06 UTC
Tuuli 5 kn eri suunnista
Näkyvyys 10 km tai enemmän
Hajanaisia pilviä 1500 ft:n korkeudessa
Hajonneita pilviä 3000 ft:n korkeudessa
Tulossa
27. päivästä klo 09 UTC - 27. päivään klo 12 UTC
Tuuli 12 kn etelästä/lounaasta

TAF: LPMA 270500Z 2706/2806 VRB05KT 9999 SCT015 BKN030 BECMG 2709/2712 21012KT

Säähavainnot ja -ennusteet yli 4000 lentoasemalta (METAR- ja TAF-raportit).

Käytössä olevat sääasemat on merkitty karttaan keltaisilla ja punaisilla pisteillä.

Aseta hiiri pisteen päälle nähdäksesi sääaseman nimen.

Klikkaa sitten nähdäksesi säähavainnot ja -ennusteet.

Kartan vaihtaminen: klikkaa mustalla rastilla varustettuja vihreitä pisteitä, niin voit zoomata sisään; viivalla varustettua vihreää pistettä, niin voit zoomata ulos tai vihreitä nuolia, niin pääset viereisille kartoille.


METAR-TAF: